CheckWX is a tool to help pilots better visualize weather data.  It is not intended as a substitute for an official pre-flight weather briefing.

03:50:29 UTC

KLSV METAR
Nellis AFB Airport
Las Vegas, Nevada, USA
Current

54 mins ago

KLSV 270256Z 20016G22KT 10SM FEW085 BKN120 21/02 A2968 RMK AO2A WND DATA ESTMD T02090018 55001
Observed
May-27 @ 02:56 UTC
Wind
  • 200° at 16 KTS
  • Gusting to 22 KTS
Visibility
10 SM
Flight Rules
VFR
Cloud Levels
  • Few at 8,500' AGL
  • Broken at 12,000' AGL
Temperature
21°C / 70°F
Dewpoint
C / 36°F
Humidity
29%
Altimeter
29.68" Hg
Pressure
1005.12 hPa
Previous

2 hours ago

KLSV 270156Z COR 19014G19KT 10SM FEW080 SCT095 BKN120 22/02 A2966 RMK AO2A LTG DSNT NE SLP017 WND DATA ESTMD T02220016 COR 0156
Observed
May-27 @ 01:56 UTC
Wind
  • 190° at 14 KTS
  • Gusting to 19 KTS
Visibility
10 SM
Flight Rules
VFR
Cloud Levels
  • Few at 8,000' AGL
  • Scattered at 9,500' AGL
  • Broken at 12,000' AGL
Temperature
22°C / 72°F
Dewpoint
C / 36°F
Humidity
27%
Altimeter
29.66" Hg
Pressure
1004.42 hPa
Previous

3 hours ago

KLSV 270056Z 21010G18KT 10SM BKN080 23/01 A2967 RMK AO2A LTG DSNT NW SLP022 WND DATA ESTMD T02280012
Observed
May-27 @ 00:56 UTC
Wind
  • 210° at 10 KTS
  • Gusting to 18 KTS
Visibility
10 SM
Flight Rules
VFR
Cloud Levels
  • Broken at 8,000' AGL
Temperature
23°C / 73°F
Dewpoint
C / 34°F
Humidity
23%
Altimeter
29.67" Hg
Pressure
1004.72 hPa